sensor_id;sensor_type;location;lat;lon;timestamp;P1;durP1;ratioP1;P2;durP2;ratioP2
64887;SDS011;51386;53.082;8.816;2024-02-21T00:00:34;21.33;;;13.73;;
64887;SDS011;51386;53.082;8.816;2024-02-21T00:03:02;23.90;;;14.67;;
64887;SDS011;51386;53.082;8.816;2024-02-21T00:05:32;24.10;;;14.00;;
64887;SDS011;51386;53.082;8.816;2024-02-21T00:08:01;24.20;;;13.90;;
64887;SDS011;51386;53.082;8.816;2024-02-21T00:10:31;23.47;;;14.17;;
64887;SDS011;51386;53.082;8.816;2024-02-21T00:12:59;23.80;;;15.67;;
64887;SDS011;51386;53.082;8.816;2024-02-21T00:15:28;29.90;;;14.67;;
64887;SDS011;51386;53.082;8.816;2024-02-21T00:17:57;25.07;;;15.33;;
64887;SDS011;51386;53.082;8.816;2024-02-21T00:20:25;22.67;;;14.97;;
64887;SDS011;51386;53.082;8.816;2024-02-21T00:22:53;23.93;;;15.30;;
64887;SDS011;51386;53.082;8.816;2024-02-21T00:25:22;27.33;;;15.93;;
64887;SDS011;51386;53.082;8.816;2024-02-21T00:27:51;23.67;;;15.73;;
64887;SDS011;51386;53.082;8.816;2024-02-21T00:30:21;25.80;;;16.33;;
64887;SDS011;51386;53.082;8.816;2024-02-21T00:32:49;32.20;;;17.67;;
64887;SDS011;51386;53.082;8.816;2024-02-21T00:35:18;30.70;;;17.80;;
64887;SDS011;51386;53.082;8.816;2024-02-21T00:37:46;26.77;;;18.57;;
64887;SDS011;51386;53.082;8.816;2024-02-21T00:40:15;25.67;;;17.53;;
64887;SDS011;51386;53.082;8.816;2024-02-21T00:42:47;30.20;;;18.17;;
64887;SDS011;51386;53.082;8.816;2024-02-21T00:45:16;33.77;;;19.13;;
64887;SDS011;51386;53.082;8.816;2024-02-21T00:47:44;30.03;;;19.43;;
64887;SDS011;51386;53.082;8.816;2024-02-21T00:50:13;27.97;;;17.97;;
64887;SDS011;51386;53.082;8.816;2024-02-21T00:52:41;31.87;;;19.30;;
64887;SDS011;51386;53.082;8.816;2024-02-21T00:55:11;30.77;;;18.67;;
64887;SDS011;51386;53.082;8.816;2024-02-21T00:57:39;33.83;;;19.97;;
64887;SDS011;51386;53.082;8.816;2024-02-21T01:00:08;32.47;;;18.90;;
64887;SDS011;51386;53.082;8.816;2024-02-21T01:02:37;26.70;;;17.33;;
64887;SDS011;51386;53.082;8.816;2024-02-21T01:05:05;29.87;;;17.87;;
64887;SDS011;51386;53.082;8.816;2024-02-21T01:07:34;29.87;;;17.93;;
64887;SDS011;51386;53.082;8.816;2024-02-21T01:10:03;29.33;;;18.03;;
64887;SDS011;51386;53.082;8.816;2024-02-21T01:12:32;32.33;;;19.80;;
64887;SDS011;51386;53.082;8.816;2024-02-21T01:15:00;29.67;;;17.93;;
64887;SDS011;51386;53.082;8.816;2024-02-21T01:17:29;29.13;;;18.07;;
64887;SDS011;51386;53.082;8.816;2024-02-21T01:19:57;37.97;;;17.90;;
64887;SDS011;51386;53.082;8.816;2024-02-21T01:22:26;29.00;;;17.57;;
64887;SDS011;51386;53.082;8.816;2024-02-21T01:24:54;30.47;;;18.47;;
64887;SDS011;51386;53.082;8.816;2024-02-21T01:27:23;27.17;;;16.87;;
64887;SDS011;51386;53.082;8.816;2024-02-21T01:29:51;23.37;;;17.77;;
64887;SDS011;51386;53.082;8.816;2024-02-21T01:32:19;28.20;;;17.70;;
64887;SDS011;51386;53.082;8.816;2024-02-21T01:34:49;25.77;;;18.23;;
64887;SDS011;51386;53.082;8.816;2024-02-21T01:37:19;26.80;;;17.33;;
64887;SDS011;51386;53.082;8.816;2024-02-21T01:39:47;29.23;;;17.87;;
64887;SDS011;51386;53.082;8.816;2024-02-21T01:42:17;24.87;;;15.93;;
64887;SDS011;51386;53.082;8.816;2024-02-21T01:44:45;27.60;;;18.17;;
64887;SDS011;51386;53.082;8.816;2024-02-21T01:47:13;35.87;;;17.83;;
64887;SDS011;51386;53.082;8.816;2024-02-21T01:49:42;29.30;;;17.57;;
64887;SDS011;51386;53.082;8.816;2024-02-21T01:52:11;25.40;;;16.50;;
64887;SDS011;51386;53.082;8.816;2024-02-21T01:54:43;24.53;;;15.77;;
64887;SDS011;51386;53.082;8.816;2024-02-21T01:57:14;32.20;;;17.20;;
64887;SDS011;51386;53.082;8.816;2024-02-21T01:59:43;27.80;;;17.50;;
64887;SDS011;51386;53.082;8.816;2024-02-21T02:02:11;28.87;;;17.23;;
64887;SDS011;51386;53.082;8.816;2024-02-21T02:04:41;23.70;;;16.00;;
64887;SDS011;51386;53.082;8.816;2024-02-21T02:07:10;29.93;;;16.93;;
64887;SDS011;51386;53.082;8.816;2024-02-21T02:09:38;24.93;;;16.10;;
64887;SDS011;51386;53.082;8.816;2024-02-21T02:12:07;27.67;;;15.97;;
64887;SDS011;51386;53.082;8.816;2024-02-21T02:14:36;32.27;;;16.83;;
64887;SDS011;51386;53.082;8.816;2024-02-21T02:17:05;26.93;;;16.80;;
64887;SDS011;51386;53.082;8.816;2024-02-21T02:19:33;30.67;;;16.83;;
64887;SDS011;51386;53.082;8.816;2024-02-21T02:22:06;27.53;;;17.50;;
64887;SDS011;51386;53.082;8.816;2024-02-21T02:24:47;26.97;;;16.27;;
64887;SDS011;51386;53.082;8.816;2024-02-21T02:27:17;29.47;;;17.17;;
64887;SDS011;51386;53.082;8.816;2024-02-21T02:29:45;25.23;;;16.67;;
64887;SDS011;51386;53.082;8.816;2024-02-21T02:32:14;27.67;;;16.07;;
64887;SDS011;51386;53.082;8.816;2024-02-21T02:34:42;31.50;;;15.80;;
64887;SDS011;51386;53.082;8.816;2024-02-21T02:37:11;27.93;;;15.97;;
64887;SDS011;51386;53.082;8.816;2024-02-21T02:39:39;26.53;;;16.80;;
64887;SDS011;51386;53.082;8.816;2024-02-21T02:42:07;32.60;;;18.13;;
64887;SDS011;51386;53.082;8.816;2024-02-21T02:44:36;23.50;;;16.13;;
64887;SDS011;51386;53.082;8.816;2024-02-21T02:47:04;24.57;;;15.43;;
64887;SDS011;51386;53.082;8.816;2024-02-21T02:49:33;30.57;;;17.30;;
64887;SDS011;51386;53.082;8.816;2024-02-21T02:52:01;33.70;;;17.40;;
64887;SDS011;51386;53.082;8.816;2024-02-21T02:54:30;24.40;;;17.83;;
64887;SDS011;51386;53.082;8.816;2024-02-21T02:56:58;26.23;;;15.77;;
64887;SDS011;51386;53.082;8.816;2024-02-21T02:59:26;25.70;;;15.80;;
64887;SDS011;51386;53.082;8.816;2024-02-21T03:01:55;29.43;;;16.03;;
64887;SDS011;51386;53.082;8.816;2024-02-21T03:04:23;22.33;;;15.80;;
64887;SDS011;51386;53.082;8.816;2024-02-21T03:06:52;28.03;;;16.90;;
64887;SDS011;51386;53.082;8.816;2024-02-21T03:09:21;21.63;;;15.43;;
64887;SDS011;51386;53.082;8.816;2024-02-21T03:11:49;27.00;;;15.37;;
64887;SDS011;51386;53.082;8.816;2024-02-21T03:14:17;24.43;;;16.10;;
64887;SDS011;51386;53.082;8.816;2024-02-21T03:16:46;22.00;;;15.40;;
64887;SDS011;51386;53.082;8.816;2024-02-21T03:19:14;27.73;;;14.57;;
64887;SDS011;51386;53.082;8.816;2024-02-21T03:21:43;25.13;;;15.77;;
64887;SDS011;51386;53.082;8.816;2024-02-21T03:24:11;23.03;;;15.70;;
64887;SDS011;51386;53.082;8.816;2024-02-21T03:26:40;26.20;;;16.30;;
64887;SDS011;51386;53.082;8.816;2024-02-21T03:29:08;23.57;;;16.03;;
64887;SDS011;51386;53.082;8.816;2024-02-21T03:31:38;24.20;;;15.63;;
64887;SDS011;51386;53.082;8.816;2024-02-21T03:34:07;23.83;;;14.50;;
64887;SDS011;51386;53.082;8.816;2024-02-21T03:36:38;25.00;;;15.73;;
64887;SDS011;51386;53.082;8.816;2024-02-21T03:39:07;24.93;;;15.93;;
64887;SDS011;51386;53.082;8.816;2024-02-21T03:41:36;26.77;;;16.27;;
64887;SDS011;51386;53.082;8.816;2024-02-21T03:44:05;24.20;;;14.83;;
64887;SDS011;51386;53.082;8.816;2024-02-21T03:46:33;22.17;;;15.63;;
64887;SDS011;51386;53.082;8.816;2024-02-21T03:49:01;26.30;;;16.33;;
64887;SDS011;51386;53.082;8.816;2024-02-21T03:51:30;24.13;;;16.20;;
64887;SDS011;51386;53.082;8.816;2024-02-21T03:53:58;24.90;;;15.73;;
64887;SDS011;51386;53.082;8.816;2024-02-21T03:56:27;25.97;;;15.90;;
64887;SDS011;51386;53.082;8.816;2024-02-21T03:58:55;22.23;;;13.93;;
64887;SDS011;51386;53.082;8.816;2024-02-21T04:01:24;26.03;;;15.13;;
64887;SDS011;51386;53.082;8.816;2024-02-21T04:03:52;24.13;;;15.77;;
64887;SDS011;51386;53.082;8.816;2024-02-21T04:06:21;26.70;;;14.83;;
64887;SDS011;51386;53.082;8.816;2024-02-21T04:08:49;27.63;;;16.63;;
64887;SDS011;51386;53.082;8.816;2024-02-21T04:11:17;26.63;;;15.57;;
64887;SDS011;51386;53.082;8.816;2024-02-21T04:13:46;23.20;;;15.73;;
64887;SDS011;51386;53.082;8.816;2024-02-21T04:16:17;22.23;;;15.13;;
64887;SDS011;51386;53.082;8.816;2024-02-21T04:18:45;19.63;;;14.43;;
64887;SDS011;51386;53.082;8.816;2024-02-21T04:21:14;23.87;;;16.50;;
64887;SDS011;51386;53.082;8.816;2024-02-21T04:23:44;23.07;;;14.90;;
64887;SDS011;51386;53.082;8.816;2024-02-21T04:26:13;20.03;;;15.47;;
64887;SDS011;51386;53.082;8.816;2024-02-21T04:28:41;24.63;;;16.00;;
64887;SDS011;51386;53.082;8.816;2024-02-21T04:31:09;19.80;;;14.80;;
64887;SDS011;51386;53.082;8.816;2024-02-21T04:33:38;21.53;;;14.70;;
64887;SDS011;51386;53.082;8.816;2024-02-21T04:36:06;21.40;;;14.80;;
64887;SDS011;51386;53.082;8.816;2024-02-21T04:38:35;23.90;;;14.00;;
64887;SDS011;51386;53.082;8.816;2024-02-21T04:41:03;20.60;;;15.07;;
64887;SDS011;51386;53.082;8.816;2024-02-21T04:43:32;25.60;;;14.70;;
64887;SDS011;51386;53.082;8.816;2024-02-21T04:46:00;19.27;;;13.63;;
64887;SDS011;51386;53.082;8.816;2024-02-21T04:48:29;21.87;;;14.33;;
64887;SDS011;51386;53.082;8.816;2024-02-21T04:50:57;21.93;;;14.17;;
64887;SDS011;51386;53.082;8.816;2024-02-21T04:53:25;22.23;;;13.93;;
64887;SDS011;51386;53.082;8.816;2024-02-21T04:55:54;19.57;;;14.33;;
64887;SDS011;51386;53.082;8.816;2024-02-21T04:58:22;22.57;;;13.13;;
64887;SDS011;51386;53.082;8.816;2024-02-21T05:00:51;17.77;;;13.27;;
64887;SDS011;51386;53.082;8.816;2024-02-21T05:03:20;18.90;;;13.73;;
64887;SDS011;51386;53.082;8.816;2024-02-21T05:05:49;17.33;;;13.17;;
64887;SDS011;51386;53.082;8.816;2024-02-21T05:08:18;18.20;;;13.17;;
64887;SDS011;51386;53.082;8.816;2024-02-21T05:10:46;19.87;;;13.23;;
64887;SDS011;51386;53.082;8.816;2024-02-21T05:13:15;17.70;;;12.30;;
64887;SDS011;51386;53.082;8.816;2024-02-21T05:15:43;18.63;;;12.57;;
64887;SDS011;51386;53.082;8.816;2024-02-21T05:18:12;15.43;;;12.13;;
64887;SDS011;51386;53.082;8.816;2024-02-21T05:20:40;14.83;;;11.50;;
64887;SDS011;51386;53.082;8.816;2024-02-21T05:23:09;15.40;;;13.10;;
64887;SDS011;51386;53.082;8.816;2024-02-21T05:25:37;14.67;;;12.30;;
64887;SDS011;51386;53.082;8.816;2024-02-21T05:28:05;17.50;;;11.67;;
64887;SDS011;51386;53.082;8.816;2024-02-21T05:30:34;13.73;;;11.83;;
64887;SDS011;51386;53.082;8.816;2024-02-21T05:33:03;16.57;;;12.00;;
64887;SDS011;51386;53.082;8.816;2024-02-21T05:35:34;14.57;;;11.50;;
64887;SDS011;51386;53.082;8.816;2024-02-21T05:38:03;12.97;;;10.43;;
64887;SDS011;51386;53.082;8.816;2024-02-21T05:40:35;13.37;;;10.93;;
64887;SDS011;51386;53.082;8.816;2024-02-21T05:43:04;15.83;;;11.30;;
64887;SDS011;51386;53.082;8.816;2024-02-21T05:45:32;12.53;;;10.60;;
64887;SDS011;51386;53.082;8.816;2024-02-21T05:48:00;13.30;;;10.40;;
64887;SDS011;51386;53.082;8.816;2024-02-21T05:50:30;12.20;;;10.37;;
64887;SDS011;51386;53.082;8.816;2024-02-21T05:52:59;14.20;;;11.47;;
64887;SDS011;51386;53.082;8.816;2024-02-21T05:55:28;13.10;;;9.77;;
64887;SDS011;51386;53.082;8.816;2024-02-21T05:57:56;12.37;;;10.27;;
64887;SDS011;51386;53.082;8.816;2024-02-21T06:00:24;12.70;;;9.33;;
64887;SDS011;51386;53.082;8.816;2024-02-21T06:02:53;13.50;;;10.53;;
64887;SDS011;51386;53.082;8.816;2024-02-21T06:05:21;10.73;;;9.40;;
64887;SDS011;51386;53.082;8.816;2024-02-21T06:07:50;12.23;;;9.13;;
64887;SDS011;51386;53.082;8.816;2024-02-21T06:10:18;11.40;;;9.40;;
64887;SDS011;51386;53.082;8.816;2024-02-21T06:12:47;14.37;;;10.97;;
64887;SDS011;51386;53.082;8.816;2024-02-21T06:15:15;12.87;;;10.47;;
64887;SDS011;51386;53.082;8.816;2024-02-21T06:17:44;12.83;;;10.57;;
64887;SDS011;51386;53.082;8.816;2024-02-21T06:20:12;10.83;;;9.73;;
64887;SDS011;51386;53.082;8.816;2024-02-21T06:22:41;11.57;;;9.80;;
64887;SDS011;51386;53.082;8.816;2024-02-21T06:25:09;11.90;;;10.03;;
64887;SDS011;51386;53.082;8.816;2024-02-21T06:27:37;11.87;;;9.63;;
64887;SDS011;51386;53.082;8.816;2024-02-21T06:30:06;14.43;;;9.13;;
64887;SDS011;51386;53.082;8.816;2024-02-21T06:32:36;11.03;;;9.70;;
64887;SDS011;51386;53.082;8.816;2024-02-21T06:35:04;11.50;;;9.43;;
64887;SDS011;51386;53.082;8.816;2024-02-21T06:37:33;12.37;;;9.83;;
64887;SDS011;51386;53.082;8.816;2024-02-21T06:40:02;16.57;;;10.07;;
64887;SDS011;51386;53.082;8.816;2024-02-21T06:42:31;11.00;;;9.90;;
64887;SDS011;51386;53.082;8.816;2024-02-21T06:44:59;11.00;;;9.90;;
64887;SDS011;51386;53.082;8.816;2024-02-21T06:47:28;12.23;;;10.93;;
64887;SDS011;51386;53.082;8.816;2024-02-21T06:49:56;14.20;;;11.77;;
64887;SDS011;51386;53.082;8.816;2024-02-21T06:52:25;13.63;;;11.20;;
64887;SDS011;51386;53.082;8.816;2024-02-21T06:54:54;11.57;;;10.37;;
64887;SDS011;51386;53.082;8.816;2024-02-21T06:57:22;12.57;;;11.10;;
64887;SDS011;51386;53.082;8.816;2024-02-21T06:59:51;13.50;;;11.33;;
64887;SDS011;51386;53.082;8.816;2024-02-21T07:02:19;14.80;;;10.87;;
64887;SDS011;51386;53.082;8.816;2024-02-21T07:04:48;14.97;;;11.53;;
64887;SDS011;51386;53.082;8.816;2024-02-21T07:07:17;14.03;;;11.80;;
64887;SDS011;51386;53.082;8.816;2024-02-21T07:09:45;15.93;;;12.27;;
64887;SDS011;51386;53.082;8.816;2024-02-21T07:12:16;15.40;;;12.27;;
64887;SDS011;51386;53.082;8.816;2024-02-21T07:14:53;13.97;;;12.47;;
64887;SDS011;51386;53.082;8.816;2024-02-21T07:17:22;14.17;;;12.13;;
64887;SDS011;51386;53.082;8.816;2024-02-21T07:19:50;14.10;;;11.30;;
64887;SDS011;51386;53.082;8.816;2024-02-21T07:25:21;24.30;;;12.93;;
64887;SDS011;51386;53.082;8.816;2024-02-21T07:27:56;16.50;;;12.07;;
64887;SDS011;51386;53.082;8.816;2024-02-21T07:30:25;18.40;;;12.47;;
64887;SDS011;51386;53.082;8.816;2024-02-21T07:32:53;19.97;;;13.13;;
64887;SDS011;51386;53.082;8.816;2024-02-21T07:35:22;20.20;;;13.27;;
64887;SDS011;51386;53.082;8.816;2024-02-21T07:37:50;16.77;;;12.47;;
64887;SDS011;51386;53.082;8.816;2024-02-21T07:40:19;19.30;;;13.43;;
64887;SDS011;51386;53.082;8.816;2024-02-21T07:42:47;18.30;;;13.77;;
64887;SDS011;51386;53.082;8.816;2024-02-21T07:45:17;16.60;;;14.20;;
64887;SDS011;51386;53.082;8.816;2024-02-21T07:47:46;17.50;;;13.90;;
64887;SDS011;51386;53.082;8.816;2024-02-21T07:50:14;18.70;;;15.03;;
64887;SDS011;51386;53.082;8.816;2024-02-21T07:52:43;17.37;;;13.73;;
64887;SDS011;51386;53.082;8.816;2024-02-21T07:55:11;30.63;;;20.73;;
64887;SDS011;51386;53.082;8.816;2024-02-21T07:57:41;23.20;;;15.97;;
64887;SDS011;51386;53.082;8.816;2024-02-21T08:00:24;27.43;;;15.67;;
64887;SDS011;51386;53.082;8.816;2024-02-21T08:02:57;24.83;;;16.53;;
64887;SDS011;51386;53.082;8.816;2024-02-21T08:05:30;26.27;;;16.57;;
64887;SDS011;51386;53.082;8.816;2024-02-21T08:08:03;30.97;;;17.17;;
64887;SDS011;51386;53.082;8.816;2024-02-21T08:10:32;24.07;;;17.00;;
64887;SDS011;51386;53.082;8.816;2024-02-21T08:13:00;29.87;;;20.87;;
64887;SDS011;51386;53.082;8.816;2024-02-21T08:15:29;24.10;;;17.57;;
64887;SDS011;51386;53.082;8.816;2024-02-21T08:17:57;26.63;;;18.30;;
64887;SDS011;51386;53.082;8.816;2024-02-21T08:20:29;30.27;;;18.63;;
64887;SDS011;51386;53.082;8.816;2024-02-21T08:22:57;35.87;;;17.97;;
64887;SDS011;51386;53.082;8.816;2024-02-21T08:25:26;28.37;;;17.80;;
64887;SDS011;51386;53.082;8.816;2024-02-21T08:27:58;24.77;;;18.73;;
64887;SDS011;51386;53.082;8.816;2024-02-21T08:30:30;27.47;;;17.97;;
64887;SDS011;51386;53.082;8.816;2024-02-21T08:33:00;22.10;;;16.83;;
64887;SDS011;51386;53.082;8.816;2024-02-21T08:35:36;29.17;;;18.10;;
64887;SDS011;51386;53.082;8.816;2024-02-21T08:38:10;23.77;;;16.77;;
64887;SDS011;51386;53.082;8.816;2024-02-21T08:40:49;27.77;;;18.60;;
64887;SDS011;51386;53.082;8.816;2024-02-21T08:43:18;28.83;;;18.50;;
64887;SDS011;51386;53.082;8.816;2024-02-21T08:45:47;25.50;;;17.03;;
64887;SDS011;51386;53.082;8.816;2024-02-21T08:48:15;22.53;;;15.27;;
64887;SDS011;51386;53.082;8.816;2024-02-21T08:50:44;24.47;;;17.37;;
64887;SDS011;51386;53.082;8.816;2024-02-21T08:53:15;27.77;;;17.00;;
64887;SDS011;51386;53.082;8.816;2024-02-21T08:55:46;22.37;;;16.03;;
64887;SDS011;51386;53.082;8.816;2024-02-21T08:58:15;24.53;;;15.47;;
64887;SDS011;51386;53.082;8.816;2024-02-21T09:00:47;22.87;;;16.20;;
64887;SDS011;51386;53.082;8.816;2024-02-21T09:03:15;26.10;;;16.67;;
64887;SDS011;51386;53.082;8.816;2024-02-21T09:05:45;22.87;;;15.17;;
64887;SDS011;51386;53.082;8.816;2024-02-21T09:08:14;25.07;;;16.57;;
64887;SDS011;51386;53.082;8.816;2024-02-21T09:10:42;25.43;;;15.77;;
64887;SDS011;51386;53.082;8.816;2024-02-21T09:13:11;26.20;;;16.00;;
64887;SDS011;51386;53.082;8.816;2024-02-21T09:15:39;24.37;;;15.63;;
64887;SDS011;51386;53.082;8.816;2024-02-21T09:18:08;21.77;;;15.07;;
64887;SDS011;51386;53.082;8.816;2024-02-21T09:20:37;21.60;;;15.37;;
64887;SDS011;51386;53.082;8.816;2024-02-21T09:23:05;25.97;;;16.20;;
64887;SDS011;51386;53.082;8.816;2024-02-21T09:25:34;22.37;;;15.30;;
64887;SDS011;51386;53.082;8.816;2024-02-21T09:28:02;27.57;;;15.67;;
64887;SDS011;51386;53.082;8.816;2024-02-21T09:30:33;18.67;;;14.33;;
64887;SDS011;51386;53.082;8.816;2024-02-21T09:33:02;23.20;;;14.13;;
64887;SDS011;51386;53.082;8.816;2024-02-21T09:35:30;18.67;;;13.43;;
64887;SDS011;51386;53.082;8.816;2024-02-21T09:38:01;23.07;;;14.50;;
64887;SDS011;51386;53.082;8.816;2024-02-21T09:40:30;21.53;;;15.20;;
64887;SDS011;51386;53.082;8.816;2024-02-21T09:43:03;22.20;;;14.10;;
64887;SDS011;51386;53.082;8.816;2024-02-21T09:45:51;24.93;;;13.97;;
64887;SDS011;51386;53.082;8.816;2024-02-21T09:53:00;20.20;;;14.93;;
64887;SDS011;51386;53.082;8.816;2024-02-21T09:55:39;25.03;;;14.00;;
64887;SDS011;51386;53.082;8.816;2024-02-21T09:58:28;21.13;;;12.77;;
64887;SDS011;51386;53.082;8.816;2024-02-21T10:01:00;15.97;;;11.47;;
64887;SDS011;51386;53.082;8.816;2024-02-21T10:03:38;17.23;;;11.40;;
64887;SDS011;51386;53.082;8.816;2024-02-21T10:06:07;21.47;;;12.73;;
64887;SDS011;51386;53.082;8.816;2024-02-21T10:08:35;21.60;;;13.17;;
64887;SDS011;51386;53.082;8.816;2024-02-21T10:11:04;19.83;;;12.30;;
64887;SDS011;51386;53.082;8.816;2024-02-21T10:13:32;17.37;;;12.03;;
64887;SDS011;51386;53.082;8.816;2024-02-21T10:16:02;19.47;;;12.30;;
64887;SDS011;51386;53.082;8.816;2024-02-21T10:18:33;19.37;;;12.20;;
64887;SDS011;51386;53.082;8.816;2024-02-21T10:21:03;20.97;;;12.70;;
64887;SDS011;51386;53.082;8.816;2024-02-21T10:23:48;19.10;;;12.63;;
64887;SDS011;51386;53.082;8.816;2024-02-21T10:26:19;19.27;;;12.10;;
64887;SDS011;51386;53.082;8.816;2024-02-21T10:28:48;18.37;;;11.60;;
64887;SDS011;51386;53.082;8.816;2024-02-21T10:31:25;22.80;;;12.00;;
64887;SDS011;51386;53.082;8.816;2024-02-21T10:34:01;17.60;;;11.87;;
64887;SDS011;51386;53.082;8.816;2024-02-21T10:36:30;17.70;;;11.97;;
64887;SDS011;51386;53.082;8.816;2024-02-21T10:38:59;18.93;;;11.60;;
64887;SDS011;51386;53.082;8.816;2024-02-21T10:41:27;18.93;;;11.53;;
64887;SDS011;51386;53.082;8.816;2024-02-21T10:43:59;19.87;;;11.63;;
64887;SDS011;51386;53.082;8.816;2024-02-21T10:46:36;14.13;;;11.40;;
64887;SDS011;51386;53.082;8.816;2024-02-21T10:49:07;16.47;;;11.10;;
64887;SDS011;51386;53.082;8.816;2024-02-21T10:52:05;18.53;;;12.73;;
64887;SDS011;51386;53.082;8.816;2024-02-21T10:54:55;18.13;;;11.27;;
64887;SDS011;51386;53.082;8.816;2024-02-21T10:57:31;16.00;;;10.83;;
64887;SDS011;51386;53.082;8.816;2024-02-21T10:59:59;18.17;;;11.63;;
64887;SDS011;51386;53.082;8.816;2024-02-21T11:02:31;17.23;;;10.03;;
64887;SDS011;51386;53.082;8.816;2024-02-21T11:05:01;19.87;;;10.93;;
64887;SDS011;51386;53.082;8.816;2024-02-21T11:07:32;15.10;;;10.60;;
64887;SDS011;51386;53.082;8.816;2024-02-21T11:10:05;17.27;;;9.87;;
64887;SDS011;51386;53.082;8.816;2024-02-21T11:12:53;14.00;;;10.50;;
64887;SDS011;51386;53.082;8.816;2024-02-21T11:15:36;11.67;;;9.53;;
64887;SDS011;51386;53.082;8.816;2024-02-21T11:18:05;13.90;;;9.37;;
64887;SDS011;51386;53.082;8.816;2024-02-21T11:20:37;16.13;;;10.80;;
64887;SDS011;51386;53.082;8.816;2024-02-21T11:23:06;18.20;;;10.13;;
64887;SDS011;51386;53.082;8.816;2024-02-21T11:25:34;13.47;;;9.37;;
64887;SDS011;51386;53.082;8.816;2024-02-21T11:28:03;17.20;;;9.97;;
64887;SDS011;51386;53.082;8.816;2024-02-21T11:30:36;12.97;;;9.93;;
64887;SDS011;51386;53.082;8.816;2024-02-21T11:33:06;12.63;;;8.93;;
64887;SDS011;51386;53.082;8.816;2024-02-21T11:35:35;16.50;;;9.10;;
64887;SDS011;51386;53.082;8.816;2024-02-21T11:38:11;10.03;;;8.13;;
64887;SDS011;51386;53.082;8.816;2024-02-21T11:40:45;11.50;;;8.10;;
64887;SDS011;51386;53.082;8.816;2024-02-21T11:43:15;11.80;;;8.07;;
64887;SDS011;51386;53.082;8.816;2024-02-21T11:45:44;14.33;;;7.83;;
64887;SDS011;51386;53.082;8.816;2024-02-21T11:48:13;12.93;;;9.00;;
64887;SDS011;51386;53.082;8.816;2024-02-21T11:50:52;11.37;;;7.97;;
64887;SDS011;51386;53.082;8.816;2024-02-21T11:53:24;11.17;;;7.57;;
64887;SDS011;51386;53.082;8.816;2024-02-21T11:56:03;10.00;;;7.10;;
64887;SDS011;51386;53.082;8.816;2024-02-21T11:58:32;9.03;;;6.60;;
64887;SDS011;51386;53.082;8.816;2024-02-21T12:01:02;12.37;;;7.40;;
64887;SDS011;51386;53.082;8.816;2024-02-21T12:03:31;14.53;;;7.40;;
64887;SDS011;51386;53.082;8.816;2024-02-21T12:06:03;11.73;;;6.63;;
64887;SDS011;51386;53.082;8.816;2024-02-21T12:08:43;18.87;;;10.73;;
64887;SDS011;51386;53.082;8.816;2024-02-21T12:11:21;8.60;;;6.93;;
64887;SDS011;51386;53.082;8.816;2024-02-21T12:14:03;13.93;;;7.37;;
64887;SDS011;51386;53.082;8.816;2024-02-21T12:16:33;9.97;;;6.03;;
64887;SDS011;51386;53.082;8.816;2024-02-21T12:19:03;10.53;;;6.33;;
64887;SDS011;51386;53.082;8.816;2024-02-21T12:21:33;10.90;;;6.57;;
64887;SDS011;51386;53.082;8.816;2024-02-21T12:24:23;8.53;;;5.27;;
64887;SDS011;51386;53.082;8.816;2024-02-21T12:26:55;9.13;;;5.43;;
64887;SDS011;51386;53.082;8.816;2024-02-21T12:29:26;9.70;;;5.77;;
64887;SDS011;51386;53.082;8.816;2024-02-21T12:31:55;12.23;;;5.90;;
64887;SDS011;51386;53.082;8.816;2024-02-21T12:34:24;9.07;;;6.03;;
64887;SDS011;51386;53.082;8.816;2024-02-21T12:37:10;12.10;;;6.33;;
64887;SDS011;51386;53.082;8.816;2024-02-21T12:39:40;6.97;;;5.67;;
64887;SDS011;51386;53.082;8.816;2024-02-21T12:42:09;11.53;;;5.93;;
64887;SDS011;51386;53.082;8.816;2024-02-21T12:44:39;10.30;;;5.90;;
64887;SDS011;51386;53.082;8.816;2024-02-21T12:47:07;10.00;;;5.10;;
64887;SDS011;51386;53.082;8.816;2024-02-21T12:49:36;9.27;;;4.90;;
64887;SDS011;51386;53.082;8.816;2024-02-21T12:52:10;9.50;;;5.10;;
64887;SDS011;51386;53.082;8.816;2024-02-21T12:54:39;8.57;;;4.70;;
64887;SDS011;51386;53.082;8.816;2024-02-21T12:57:07;11.40;;;5.20;;
64887;SDS011;51386;53.082;8.816;2024-02-21T12:59:36;9.37;;;4.97;;
64887;SDS011;51386;53.082;8.816;2024-02-21T13:02:04;12.17;;;5.53;;
64887;SDS011;51386;53.082;8.816;2024-02-21T13:04:34;8.50;;;5.40;;
64887;SDS011;51386;53.082;8.816;2024-02-21T13:07:02;10.87;;;5.33;;
64887;SDS011;51386;53.082;8.816;2024-02-21T13:09:31;9.10;;;4.70;;
64887;SDS011;51386;53.082;8.816;2024-02-21T13:11:59;7.20;;;4.57;;
64887;SDS011;51386;53.082;8.816;2024-02-21T13:14:27;8.43;;;5.03;;
64887;SDS011;51386;53.082;8.816;2024-02-21T13:16:56;7.40;;;4.47;;
64887;SDS011;51386;53.082;8.816;2024-02-21T13:19:25;7.63;;;5.03;;
64887;SDS011;51386;53.082;8.816;2024-02-21T13:21:53;9.60;;;5.20;;
64887;SDS011;51386;53.082;8.816;2024-02-21T13:24:22;6.70;;;5.10;;
64887;SDS011;51386;53.082;8.816;2024-02-21T13:26:50;7.40;;;5.63;;
64887;SDS011;51386;53.082;8.816;2024-02-21T13:29:19;10.43;;;5.93;;
64887;SDS011;51386;53.082;8.816;2024-02-21T13:31:48;9.90;;;6.50;;
64887;SDS011;51386;53.082;8.816;2024-02-21T13:34:17;9.30;;;6.60;;
64887;SDS011;51386;53.082;8.816;2024-02-21T13:36:46;10.23;;;6.30;;
64887;SDS011;51386;53.082;8.816;2024-02-21T13:39:14;8.90;;;6.90;;
64887;SDS011;51386;53.082;8.816;2024-02-21T13:41:43;8.73;;;6.93;;
64887;SDS011;51386;53.082;8.816;2024-02-21T13:44:11;9.87;;;7.13;;
64887;SDS011;51386;53.082;8.816;2024-02-21T13:46:40;11.77;;;8.53;;
64887;SDS011;51386;53.082;8.816;2024-02-21T13:49:38;8.10;;;7.33;;
64887;SDS011;51386;53.082;8.816;2024-02-21T13:52:16;11.03;;;7.53;;
64887;SDS011;51386;53.082;8.816;2024-02-21T13:54:52;8.33;;;7.30;;
64887;SDS011;51386;53.082;8.816;2024-02-21T13:57:20;7.60;;;6.90;;
64887;SDS011;51386;53.082;8.816;2024-02-21T13:59:49;7.80;;;7.07;;
64887;SDS011;51386;53.082;8.816;2024-02-21T14:02:18;12.33;;;7.30;;
64887;SDS011;51386;53.082;8.816;2024-02-21T14:04:47;9.30;;;7.13;;
64887;SDS011;51386;53.082;8.816;2024-02-21T14:07:15;8.50;;;7.70;;
64887;SDS011;51386;53.082;8.816;2024-02-21T14:09:44;9.33;;;7.33;;
64887;SDS011;51386;53.082;8.816;2024-02-21T14:12:13;9.77;;;7.10;;
64887;SDS011;51386;53.082;8.816;2024-02-21T14:14:43;7.73;;;7.03;;
64887;SDS011;51386;53.082;8.816;2024-02-21T14:17:12;10.90;;;7.40;;
64887;SDS011;51386;53.082;8.816;2024-02-21T14:19:41;8.47;;;7.60;;
64887;SDS011;51386;53.082;8.816;2024-02-21T14:22:09;8.20;;;7.40;;
64887;SDS011;51386;53.082;8.816;2024-02-21T14:24:39;11.13;;;7.23;;
64887;SDS011;51386;53.082;8.816;2024-02-21T14:27:07;7.93;;;7.10;;
64887;SDS011;51386;53.082;8.816;2024-02-21T14:29:36;11.07;;;7.47;;
64887;SDS011;51386;53.082;8.816;2024-02-21T14:32:05;8.10;;;6.77;;
64887;SDS011;51386;53.082;8.816;2024-02-21T14:34:35;10.60;;;7.37;;
64887;SDS011;51386;53.082;8.816;2024-02-21T14:37:04;12.30;;;7.57;;
64887;SDS011;51386;53.082;8.816;2024-02-21T14:39:32;8.07;;;7.07;;
64887;SDS011;51386;53.082;8.816;2024-02-21T14:42:02;7.53;;;6.33;;
64887;SDS011;51386;53.082;8.816;2024-02-21T14:44:31;6.37;;;5.70;;
64887;SDS011;51386;53.082;8.816;2024-02-21T14:46:59;9.00;;;5.70;;
64887;SDS011;51386;53.082;8.816;2024-02-21T14:49:28;11.13;;;6.13;;